YVP weather

Kuujjuaq Airport
Kuujjuaq, Quebec, Canada

Public forecast

Using degrees Celsius for public forecast. Weather courtesy of forecast.io.

METAR (pilot weather report)

Retrieved 2019/05/21 15:00 UTC (7 minutes ago):

CYVP 211500Z 15007KT 15SM FEW030 SCT055 OVC077 09/01 A3008 RMK CU2SC1AC5 SLP190

TAF (pilot weather forecast)

Retrieved 2019/05/21 12:00 UTC (3 hours ago):

TAF CYVP 211138Z 2112/2124 VRB03KT P6SM BKN180 FM211400 12008KT P6SM BKN030 TEMPO 2114/2124 BKN020 RMK NXT FCST BY 211800Z